Time;durP1;ratioP1;P1;durP2;ratioP2;P2;SDS_P1;SDS_P2;PMS_P1;PMS_P2;Temp;Humidity;BMP_temperature;BMP_pressure;BME280_temperature;BME280_humidity;BME280_pressure;Samples;Min_cycle;Max_cycle;Signal;HPM_P1;HPM_P2
2023/02/11 00:01:27;;;;;;;21.25;3.70;;;;;;;6.92;100.00;103304.56;2613892;36;20022;-54
2023/02/11 00:03:58;;;;;;;13.57;3.47;;;;;;;6.99;100.00;103300.75;2615847;36;20038;-54
2023/02/11 00:06:29;;;;;;;13.77;3.83;;;;;;;6.98;100.00;103294.53;2615541;36;20026;-52
2023/02/11 00:08:58;;;;;;;18.92;4.05;;;;;;;6.93;100.00;103296.47;2615392;36;20038;-56
2023/02/11 00:11:29;;;;;;;14.93;4.15;;;;;;;6.88;100.00;103295.75;2613982;36;20035;-53
2023/02/11 00:13:58;;;;;;;21.95;4.05;;;;;;;6.91;100.00;103303.69;2614421;36;20046;-55
2023/02/11 00:16:26;;;;;;;18.50;5.05;;;;;;;6.84;100.00;103302.13;2613952;36;20026;-55
2023/02/11 00:18:58;;;;;;;16.83;3.90;;;;;;;6.85;100.00;103298.53;2614796;36;20050;-55
2023/02/11 00:21:28;;;;;;;14.73;3.88;;;;;;;6.96;100.00;103291.03;2614221;36;20059;-55
2023/02/11 00:23:58;;;;;;;20.75;4.75;;;;;;;6.96;100.00;103296.38;2614709;36;20038;-55
2023/02/11 00:26:28;;;;;;;16.27;4.07;;;;;;;6.99;100.00;103300.75;2613986;36;20049;-55
2023/02/11 00:28:57;;;;;;;18.42;4.40;;;;;;;7.02;100.00;103306.00;2614672;36;20566;-53
2023/02/11 00:31:26;;;;;;;22.17;3.60;;;;;;;7.04;100.00;103308.63;2615101;31;20038;-57
2023/02/11 00:33:58;;;;;;;14.52;3.63;;;;;;;7.04;100.00;103312.19;2615078;36;20038;-53
2023/02/11 00:36:29;;;;;;;16.02;3.33;;;;;;;7.06;100.00;103317.47;2616098;36;20046;-54
2023/02/11 00:38:58;;;;;;;21.83;4.20;;;;;;;7.03;100.00;103302.38;2616282;36;20030;-56
2023/02/11 00:41:27;;;;;;;17.52;3.60;;;;;;;7.02;100.00;103308.66;2616383;36;20041;-55
2023/02/11 00:43:55;;;;;;;15.10;3.70;;;;;;;6.87;100.00;103288.66;2615883;36;20046;-55
2023/02/11 00:46:24;;;;;;;20.88;5.45;;;;;;;6.95;100.00;103291.94;2616198;31;20061;-52
2023/02/11 00:48:56;;;;;;;32.70;5.40;;;;;;;6.95;100.00;103281.25;2615836;36;20559;-55
2023/02/11 00:51:30;;;;;;;14.63;4.15;;;;;;;6.95;100.00;103275.00;2616615;36;20590;-54
2023/02/11 00:53:59;;;;;;;16.05;4.25;;;;;;;6.91;100.00;103279.59;2616088;36;20034;-56
2023/02/11 00:56:28;;;;;;;13.68;4.30;;;;;;;6.95;100.00;103273.22;2615984;31;20038;-54
2023/02/11 00:58:56;;;;;;;18.15;4.53;;;;;;;6.87;100.00;103269.03;2615873;36;20058;-53
2023/02/11 01:01:24;;;;;;;18.90;4.80;;;;;;;6.88;100.00;103266.31;2616473;36;20027;-51
2023/02/11 01:03:54;;;;;;;20.35;5.10;;;;;;;6.79;100.00;103266.63;2615246;36;20045;-54
2023/02/11 01:06:22;;;;;;;15.35;4.57;;;;;;;6.92;100.00;103262.59;2613881;36;20038;-56
2023/02/11 01:08:53;;;;;;;19.37;5.77;;;;;;;6.94;100.00;103254.53;2613766;36;20527;-56
2023/02/11 01:11:23;;;;;;;19.05;4.43;;;;;;;6.84;100.00;103248.59;2613908;36;20879;-52
2023/02/11 01:13:51;;;;;;;;;;;;;;;6.76;100.00;103248.00;2612954;36;20049;-54
2023/02/11 01:16:21;;;;;;;15.43;4.93;;;;;;;6.76;100.00;103250.69;2613454;36;19942;-59
2023/02/11 01:18:50;;;;;;;23.15;5.22;;;;;;;6.84;100.00;103270.03;2614961;36;20038;-54
2023/02/11 01:21:19;;;;;;;21.42;5.18;;;;;;;6.84;100.00;103272.69;2614947;36;20535;-54
2023/02/11 01:23:47;;;;;;;22.95;4.97;;;;;;;6.87;100.00;103275.25;2613573;36;20034;-55
2023/02/11 01:26:18;;;;;;;24.20;6.13;;;;;;;6.84;100.00;103286.94;2613615;31;20041;-53
2023/02/11 01:28:47;;;;;;;16.13;4.78;;;;;;;6.83;100.00;103303.06;2614068;31;20049;-56
2023/02/11 01:31:16;;;;;;;19.17;4.90;;;;;;;6.84;100.00;103307.50;2612015;36;20531;-57
2023/02/11 01:33:44;;;;;;;31.15;5.50;;;;;;;6.91;100.00;103298.34;2614316;36;20298;-52
2023/02/11 01:36:14;;;;;;;23.63;4.80;;;;;;;6.81;100.00;103296.88;2615445;36;20045;-57
2023/02/11 01:38:43;;;;;;;17.58;5.20;;;;;;;6.76;100.00;103296.19;2614996;36;20041;-54
2023/02/11 01:41:13;;;;;;;;;;;;;;;6.79;100.00;103290.72;2615616;36;20101;-56
2023/02/11 01:43:46;;;;;;;23.13;5.90;;;;;;;6.73;100.00;103298.94;2615896;36;20317;-56
2023/02/11 01:46:25;;;;;;;17.90;5.43;;;;;;;6.79;100.00;103299.63;2615654;36;20023;-56
2023/02/11 01:48:57;;;;;;;21.40;5.38;;;;;;;6.92;100.00;103304.56;2615628;36;20049;-54
2023/02/11 01:51:29;;;;;;;19.73;5.32;;;;;;;6.83;100.00;103300.38;2615251;36;20085;-55
2023/02/11 01:59:33;;;;;;;22.25;5.32;;;;;;;6.92;100.00;103294.75;2616270;31;20568;-58
2023/02/11 02:02:07;;;;;;;16.10;4.95;;;;;;;6.99;100.00;103296.28;2614699;36;20035;-57
2023/02/11 02:04:43;;;;;;;18.17;5.43;;;;;;;6.98;100.00;103294.53;2614422;36;20022;-53
2023/02/11 02:07:15;;;;;;;20.38;5.28;;;;;;;7.04;100.00;103285.41;2612878;36;20050;-56
2023/02/11 02:09:51;;;;;;;19.25;4.47;;;;;;;7.04;100.00;103281.84;2614235;36;20042;-55
2023/02/11 02:12:19;;;;;;;27.98;6.50;;;;;;;6.94;100.00;103281.28;2613056;36;20026;-52
2023/02/11 02:14:50;;;;;;;27.70;5.77;;;;;;;6.81;100.00;103281.69;2614594;31;20544;-56
2023/02/11 02:17:36;;;;;;;21.15;5.80;;;;;;;6.84;100.00;103270.88;2613488;36;20070;-56
2023/02/11 02:20:35;;;;;;;17.33;5.00;;;;;;;6.77;100.00;103279.19;2614941;36;20033;-56
2023/02/11 02:23:23;;;;;;;15.77;4.80;;;;;;;6.77;100.00;103282.75;2614126;36;20563;-54
2023/02/11 02:26:29;;;;;;;22.55;5.70;;;;;;;6.73;100.00;103272.16;2614380;36;20864;-56
2023/02/11 02:29:31;;;;;;;28.85;6.13;;;;;;;6.74;100.00;103273.94;2612254;36;20041;-57
2023/02/11 02:32:24;;;;;;;20.35;5.00;;;;;;;6.87;100.00;103269.03;2614347;36;20039;-54
2023/02/11 02:35:00;;;;;;;19.45;5.32;;;;;;;6.75;100.00;103259.63;2613761;36;20038;-55
2023/02/11 02:37:36;;;;;;;22.25;5.80;;;;;;;6.65;100.00;103249.25;2613721;36;20053;-54
2023/02/11 02:40:11;;;;;;;22.17;5.30;;;;;;;6.57;100.00;103247.75;2615631;36;20035;-57
2023/02/11 02:42:41;;;;;;;22.98;5.22;;;;;;;6.51;100.00;103251.50;2614009;36;20547;-56
2023/02/11 02:45:12;;;;;;;24.00;6.07;;;;;;;6.49;100.00;103248.88;2613817;36;20073;-56
2023/02/11 02:47:43;;;;;;;18.55;5.25;;;;;;;6.57;100.00;103243.25;2614037;36;22031;-54
2023/02/11 02:50:13;;;;;;;29.45;6.00;;;;;;;6.54;100.00;103243.38;2613853;36;20590;-55
2023/02/11 02:52:54;;;;;;;16.83;5.38;;;;;;;6.56;100.00;103243.31;2614174;31;20049;-55
2023/02/11 02:55:32;;;;;;;17.30;5.50;;;;;;;6.58;100.00;103247.69;2614815;36;20038;-55
2023/02/11 02:58:37;;;;;;;18.88;5.38;;;;;;;6.45;100.00;103247.22;2614795;36;21023;-55
2023/02/11 03:01:12;;;;;;;24.15;5.05;;;;;;;6.36;100.00;103241.28;2614008;36;20054;-56
2023/02/11 03:03:50;;;;;;;24.40;5.65;;;;;;;6.35;100.00;103244.91;2614480;36;20045;-55
2023/02/11 03:06:27;;;;;;;25.27;5.75;;;;;;;6.31;100.00;103238.75;2615355;36;20118;-54
2023/02/11 03:09:01;;;;;;;24.33;5.88;;;;;;;6.26;100.00;103241.59;2614352;36;20042;-56
2023/02/11 03:11:30;;;;;;;21.35;5.32;;;;;;;6.13;100.00;103245.59;2613943;36;20042;-54
2023/02/11 03:14:02;;;;;;;20.00;6.75;;;;;;;6.26;100.00;103246.06;2613726;36;20038;-54
2023/02/11 03:16:34;;;;;;;29.35;5.75;;;;;;;6.21;100.00;103248.88;2616321;36;20042;-55
2023/02/11 03:19:12;;;;;;;13.35;6.07;;;;;;;6.23;100.00;103239.03;2616138;36;20041;-57
2023/02/11 03:21:43;;;;;;;20.58;6.28;;;;;;;6.24;100.00;103222.06;2615822;36;20539;-54
2023/02/11 03:24:16;;;;;;;25.05;7.38;;;;;;;6.21;100.00;103215.91;2616403;36;20046;-51
2023/02/11 03:26:50;;;;;;;23.38;6.03;;;;;;;6.26;100.00;103220.19;2615157;36;20046;-55
2023/02/11 03:29:28;;;;;;;20.02;6.50;;;;;;;6.27;100.00;103211.25;2616580;36;20420;-54
2023/02/11 03:32:06;;;;;;;25.40;5.97;;;;;;;6.18;100.00;103216.03;2616584;36;20034;-56
2023/02/11 03:34:44;;;;;;;23.00;7.00;;;;;;;6.18;100.00;103210.66;2616692;36;20030;-55
2023/02/11 03:37:17;;;;;;;19.92;6.53;;;;;;;6.17;100.00;103215.16;2616452;31;20042;-56
2023/02/11 03:39:49;;;;;;;30.45;7.28;;;;;;;6.19;100.00;103234.69;2615990;36;20591;-56
2023/02/11 03:42:18;;;;;;;24.45;6.78;;;;;;;6.26;100.00;103241.59;2616092;36;20026;-55
2023/02/11 03:44:59;;;;;;;18.98;6.22;;;;;;;6.26;100.00;103236.25;2616814;54;20034;-54
2023/02/11 03:47:32;;;;;;;29.23;8.07;;;;;;;6.34;100.00;103245.81;2616495;36;20031;-55
2023/02/11 03:50:06;;;;;;;26.08;6.38;;;;;;;6.30;100.00;103243.25;2615416;36;20050;-54
2023/02/11 03:52:36;;;;;;;22.20;6.93;;;;;;;6.36;100.00;103241.28;2616670;36;20491;-50
2023/02/11 03:55:10;;;;;;;21.55;6.32;;;;;;;6.33;100.00;103234.25;2616216;36;20022;-54
2023/02/11 03:57:38;;;;;;;16.05;6.45;;;;;;;6.39;100.00;103243.84;2615416;36;20049;-55
2023/02/11 04:00:09;;;;;;;22.90;6.70;;;;;;;6.30;100.00;103245.94;2616098;36;20439;-56
2023/02/11 04:02:39;;;;;;;19.50;7.30;;;;;;;6.36;100.00;103238.63;2615236;36;20041;-51
2023/02/11 04:05:12;;;;;;;19.60;7.00;;;;;;;6.27;100.00;103238.00;2615722;36;20034;-54
2023/02/11 04:07:40;;;;;;;25.67;9.00;;;;;;;6.39;100.00;103235.84;2616256;36;20050;-53
2023/02/11 04:10:09;;;;;;;21.48;6.50;;;;;;;6.53;100.00;103246.09;2615737;36;20038;-55
2023/02/11 04:12:38;;;;;;;21.83;7.30;;;;;;;6.46;100.00;103237.38;2616700;36;20030;-55
2023/02/11 04:15:07;;;;;;;19.73;6.50;;;;;;;6.58;100.00;103246.81;2616481;36;20034;-55
2023/02/11 04:17:36;;;;;;;26.33;7.13;;;;;;;6.61;100.00;103236.88;2616155;36;20038;-51
2023/02/11 04:20:04;;;;;;;22.55;7.40;;;;;;;6.55;100.00;103231.75;2615673;36;20432;-56
2023/02/11 04:22:35;;;;;;;19.13;7.00;;;;;;;6.54;100.00;103242.50;2616354;36;20026;-53
2023/02/11 04:25:04;;;;;;;23.20;7.47;;;;;;;6.61;100.00;103244.03;2616625;36;20027;-56
2023/02/11 04:27:32;;;;;;;23.90;7.90;;;;;;;6.54;100.00;103238.03;2616148;36;20524;-54
2023/02/11 04:30:00;;;;;;;23.05;7.28;;;;;;;6.54;100.00;103251.41;2616081;36;20030;-54
2023/02/11 04:32:29;;;;;;;19.73;7.70;;;;;;;6.53;100.00;103249.63;2614912;36;20065;-55
2023/02/11 04:34:57;;;;;;;23.38;7.90;;;;;;;6.58;100.00;103247.69;2615435;36;20042;-55
2023/02/11 04:37:25;;;;;;;21.48;7.13;;;;;;;6.49;100.00;103242.63;2616337;36;20022;-54
2023/02/11 04:39:56;;;;;;;22.90;7.15;;;;;;;6.43;100.00;103242.84;2616363;36;20038;-55
2023/02/11 04:42:25;;;;;;;23.73;7.82;;;;;;;6.47;100.00;103250.72;2615825;36;20038;-59
2023/02/11 04:44:53;;;;;;;18.60;7.43;;;;;;;6.44;100.00;103244.59;2616370;31;20038;-53
2023/02/11 04:47:21;;;;;;;22.08;9.15;;;;;;;6.48;100.00;103252.47;2616239;36;20034;-53
2023/02/11 04:49:50;;;;;;;25.23;7.65;;;;;;;6.52;100.00;103255.03;2615754;36;20360;-52
2023/02/11 04:52:18;;;;;;;20.00;7.67;;;;;;;6.55;100.00;103241.56;2615486;31;20551;-55
2023/02/11 04:54:47;;;;;;;25.02;8.93;;;;;;;6.48;100.00;103249.78;2616714;36;20034;-58
2023/02/11 04:57:18;;;;;;;20.60;7.57;;;;;;;6.55;100.00;103258.50;2616350;31;20039;-58
2023/02/11 04:59:46;;;;;;;31.75;9.55;;;;;;;6.46;100.00;103250.75;2616398;36;20031;-55
2023/02/11 05:02:15;;;;;;;26.23;8.45;;;;;;;6.43;100.00;103241.06;2616385;36;20518;-56
2023/02/11 05:04:43;;;;;;;33.20;10.02;;;;;;;6.44;100.00;103247.28;2615468;31;20034;-55
2023/02/11 05:07:12;;;;;;;30.08;8.48;;;;;;;6.58;100.00;103236.09;2616205;31;20559;-57
2023/02/11 05:09:41;;;;;;;27.45;9.88;;;;;;;6.57;100.00;103240.59;2616257;31;20055;-58
2023/02/11 05:12:09;;;;;;;26.98;9.07;;;;;;;6.52;100.00;103252.38;2615515;31;20026;-55
2023/02/11 05:14:40;;;;;;;28.17;8.83;;;;;;;6.56;100.00;103249.53;2615790;36;20532;-55
2023/02/11 05:17:08;;;;;;;24.05;9.02;;;;;;;6.52;100.00;103247.00;2615590;36;20027;-57
2023/02/11 05:19:37;;;;;;;26.55;9.70;;;;;;;6.57;100.00;103240.59;2614979;36;20050;-56
2023/02/11 05:22:05;;;;;;;30.40;10.10;;;;;;;6.51;100.00;103232.78;2615440;36;20034;-56
2023/02/11 05:24:34;;;;;;;24.38;10.40;;;;;;;6.59;100.00;103233.38;2615829;36;20045;-52
2023/02/11 05:27:02;;;;;;;33.60;11.82;;;;;;;6.62;100.00;103235.94;2616010;36;20035;-53
2023/02/11 05:29:31;;;;;;;36.37;11.00;;;;;;;6.66;100.00;103244.75;2615982;36;20026;-54
2023/02/11 05:32:02;;;;;;;39.92;10.43;;;;;;;6.59;100.00;103241.41;2615970;36;20049;-54
2023/02/11 05:34:31;;;;;;;27.55;11.30;;;;;;;6.56;100.00;103254.03;2615828;31;20026;-57
2023/02/11 05:37:06;;;;;;;37.17;11.75;;;;;;;6.66;100.00;103250.09;2616945;39;20549;-57
2023/02/11 05:39:34;;;;;;;28.80;12.35;;;;;;;6.67;100.00;103246.53;2616139;36;20058;-52
2023/02/11 05:42:02;;;;;;;35.20;12.30;;;;;;;6.82;100.00;103239.75;2615915;36;20038;-57
2023/02/11 05:44:31;;;;;;;33.47;13.25;;;;;;;6.82;100.00;103234.41;2615733;36;20520;-54
2023/02/11 05:46:59;;;;;;;30.60;12.13;;;;;;;6.83;100.00;103241.50;2615332;36;20249;-54
2023/02/11 05:49:30;;;;;;;31.85;14.32;;;;;;;6.89;100.00;103235.06;2615297;36;20027;-53
2023/02/11 05:51:58;;;;;;;33.85;14.10;;;;;;;6.78;100.00;103248.81;2615271;36;20750;-56
2023/02/11 05:54:26;;;;;;;40.30;13.63;;;;;;;6.78;100.00;103254.16;2615652;36;20042;-57
2023/02/11 05:56:55;;;;;;;42.13;14.15;;;;;;;6.91;100.00;103263.53;2614973;36;20546;-54
2023/02/11 05:59:23;;;;;;;34.22;13.73;;;;;;;6.81;100.00;103260.28;2615637;36;20145;-55
2023/02/11 06:01:51;;;;;;;32.35;13.23;;;;;;;6.82;100.00;103272.75;2615954;36;20435;-56
2023/02/11 06:04:20;;;;;;;35.25;14.65;;;;;;;6.85;100.00;103266.41;2615270;31;20065;-58
2023/02/11 06:06:51;;;;;;;33.92;13.50;;;;;;;6.96;100.00;103264.25;2614988;36;20045;-55
2023/02/11 06:09:19;;;;;;;34.97;14.75;;;;;;;6.89;100.00;103256.47;2616242;36;20447;-56
2023/02/11 06:11:47;;;;;;;32.35;14.18;;;;;;;6.86;100.00;103260.16;2616187;36;20034;-55
2023/02/11 06:14:16;;;;;;;37.75;15.20;;;;;;;6.90;100.00;103272.47;2617013;36;20046;-55
2023/02/11 06:16:44;;;;;;;39.20;15.30;;;;;;;6.88;100.00;103260.97;2616309;36;20053;-54
2023/02/11 06:19:12;;;;;;;42.92;15.93;;;;;;;6.97;100.00;103268.66;2617645;31;20042;-52
2023/02/11 06:21:41;;;;;;;33.83;14.37;;;;;;;7.00;100.00;103259.66;2615918;36;20034;-57
2023/02/11 06:24:12;;;;;;;38.70;15.43;;;;;;;6.96;100.00;103258.00;2616472;36;20110;-54
2023/02/11 06:26:40;;;;;;;37.85;14.75;;;;;;;6.98;100.00;103257.03;2616351;36;20038;-54
2023/02/11 06:29:09;;;;;;;42.25;15.68;;;;;;;6.99;100.00;103257.91;2616700;36;20033;-55
2023/02/11 06:32:53;;;;;;;41.95;16.23;;;;;;;7.00;100.00;103257.84;2619829;36;20092;-53
2023/02/11 06:35:21;;;;;;;37.55;15.70;;;;;;;7.03;100.00;103254.19;2620068;36;20042;-56
2023/02/11 06:37:52;;;;;;;49.13;16.15;;;;;;;7.06;100.00;103253.22;2620256;31;20060;-54
2023/02/11 06:40:21;;;;;;;42.10;15.52;;;;;;;7.03;100.00;103248.84;2620182;36;20628;-57
2023/02/11 06:42:49;;;;;;;48.67;15.48;;;;;;;7.11;100.00;103249.44;2620365;36;20042;-53
2023/02/11 06:45:19;;;;;;;42.50;15.18;;;;;;;7.01;100.00;103240.84;2619538;36;20022;-53
2023/02/11 06:47:47;;;;;;;37.60;15.95;;;;;;;7.05;100.00;103240.75;2619553;36;20050;-54
2023/02/11 06:50:18;;;;;;;38.88;14.77;;;;;;;7.07;100.00;103244.25;2619796;36;20030;-55
2023/02/11 06:52:47;;;;;;;41.90;15.98;;;;;;;7.10;100.00;103254.88;2620286;36;20049;-52
2023/02/11 06:55:15;;;;;;;38.75;15.63;;;;;;;7.15;100.00;103256.41;2620298;36;20137;-55
2023/02/11 06:57:43;;;;;;;40.13;15.70;;;;;;;7.21;100.00;103258.00;2620570;31;20029;-54
2023/02/11 07:00:13;;;;;;;43.33;16.30;;;;;;;7.15;100.00;103263.59;2619928;31;20053;-55
2023/02/11 07:02:42;;;;;;;41.13;17.50;;;;;;;7.16;100.00;103260.00;2618602;36;20586;-54
2023/02/11 07:05:10;;;;;;;41.08;16.65;;;;;;;7.11;100.00;103264.63;2619539;31;20041;-55
2023/02/11 07:07:41;;;;;;;60.53;19.55;;;;;;;7.14;100.00;103260.06;2618908;36;20042;-55
2023/02/11 07:12:52;;;;;;;43.67;16.48;;;;;;;7.03;100.00;103275.63;2620039;36;20196;-58
2023/02/11 07:15:21;;;;;;;47.33;16.83;;;;;;;7.01;100.00;103278.34;2620012;36;20038;-53
2023/02/11 07:17:49;;;;;;;45.83;16.73;;;;;;;7.05;100.00;103280.91;2638403;36;20410;-52
2023/02/11 07:20:18;;;;;;;42.58;16.85;;;;;;;7.07;100.00;103284.44;2619615;36;20030;-57
2023/02/11 07:22:46;;;;;;;48.30;16.52;;;;;;;7.14;100.00;103280.59;2620243;36;20057;-55
2023/02/11 07:25:14;;;;;;;35.95;16.85;;;;;;;7.30;100.00;103281.81;2619316;36;20026;-56
2023/02/11 07:27:43;;;;;;;45.63;18.50;;;;;;;7.19;100.00;103286.66;2619554;36;20045;-55
2023/02/11 07:30:15;;;;;;;38.83;16.60;;;;;;;7.15;100.00;103288.56;2619980;36;20026;-57
2023/02/11 07:32:44;;;;;;;42.05;16.17;;;;;;;7.10;100.00;103290.53;2619412;36;20042;-57
2023/02/11 07:35:13;;;;;;;42.28;16.67;;;;;;;7.12;100.00;103301.19;2619814;36;20527;-56
2023/02/11 07:37:42;;;;;;;39.75;16.58;;;;;;;7.14;100.00;103297.56;2620299;36;20535;-54
2023/02/11 07:40:11;;;;;;;42.25;18.13;;;;;;;7.24;100.00;103292.72;2620282;36;20133;-56
2023/02/11 07:42:41;;;;;;;46.97;17.65;;;;;;;7.25;100.00;103296.28;2620045;36;20050;-55
2023/02/11 07:45:11;;;;;;;49.05;17.88;;;;;;;7.28;100.00;103297.03;2620396;36;20560;-59
2023/02/11 07:47:42;;;;;;;36.72;15.45;;;;;;;7.24;100.00;103300.75;2619817;36;20034;-57
2023/02/11 07:50:11;;;;;;;44.28;17.48;;;;;;;7.14;100.00;103297.56;2620422;36;20038;-57
2023/02/11 07:52:39;;;;;;;41.75;17.42;;;;;;;7.16;100.00;103287.66;2619458;36;20026;-55
2023/02/11 07:55:08;;;;;;;45.55;15.48;;;;;;;7.22;100.00;103291.91;2620360;36;20045;-56
2023/02/11 07:57:37;;;;;;;45.95;17.65;;;;;;;7.22;100.00;103289.22;2619489;36;20022;-56
2023/02/11 08:02:46;;;;;;;47.03;17.98;;;;;;;7.13;100.00;103292.25;2620092;31;20203;-54
2023/02/11 08:05:15;;;;;;;46.15;17.08;;;;;;;7.15;100.00;103295.72;2620263;36;20027;-58
2023/02/11 08:07:43;;;;;;;40.20;17.50;;;;;;;7.17;100.00;103299.25;2620439;36;20042;-55
2023/02/11 08:10:11;;;;;;;49.40;17.90;;;;;;;7.35;100.00;103287.00;2620517;31;20038;-56
2023/02/11 08:12:40;;;;;;;43.13;16.67;;;;;;;7.29;100.00;103285.41;2621024;36;20026;-55
2023/02/11 08:15:09;;;;;;;48.65;19.50;;;;;;;7.27;100.00;103289.94;2620243;36;20653;-56
2023/02/11 08:17:37;;;;;;;51.65;19.55;;;;;;;7.30;100.00;103288.94;2620280;36;20034;-58
2023/02/11 08:20:09;;;;;;;41.20;18.10;;;;;;;7.25;100.00;103293.63;2619592;36;20034;-56
2023/02/11 08:22:37;;;;;;;43.88;18.70;;;;;;;7.26;100.00;103290.88;2620086;36;20030;-53
2023/02/11 08:25:06;;;;;;;42.28;17.17;;;;;;;7.23;100.00;103293.66;2620511;36;20045;-56
2023/02/11 08:27:34;;;;;;;47.42;19.17;;;;;;;7.34;100.00;103295.97;2620552;36;20041;-55
2023/02/11 08:30:03;;;;;;;41.45;17.42;;;;;;;7.43;100.00;103302.78;2619711;36;20646;-57
2023/02/11 08:32:31;;;;;;;41.97;17.98;;;;;;;7.43;100.00;103306.34;2620057;36;20113;-56
2023/02/11 08:34:59;;;;;;;51.95;18.83;;;;;;;7.43;100.00;103305.47;2619247;36;20061;-56
2023/02/11 08:37:30;;;;;;;43.42;18.83;;;;;;;7.50;100.00;103301.63;2620213;31;20098;-57
2023/02/11 08:39:59;;;;;;;43.78;18.75;;;;;;;7.46;100.00;103308.91;2620331;36;20425;-53
2023/02/11 08:42:27;;;;;;;48.92;19.55;;;;;;;7.42;100.00;103314.44;2620124;36;20030;-57
2023/02/11 08:44:55;;;;;;;42.97;19.17;;;;;;;7.54;100.00;103320.22;2620324;36;20037;-52
2023/02/11 08:47:24;;;;;;;40.90;17.73;;;;;;;7.61;100.00;103320.00;2619957;36;20041;-57
2023/02/11 08:49:52;;;;;;;42.30;17.05;;;;;;;7.53;100.00;103325.66;2619891;36;20038;-54
2023/02/11 08:52:20;;;;;;;46.88;18.17;;;;;;;7.69;100.00;103318.78;2619312;31;20038;-59
2023/02/11 08:54:52;;;;;;;41.33;17.17;;;;;;;7.76;100.00;103329.28;2619837;36;20095;-59
2023/02/11 08:57:20;;;;;;;42.10;17.50;;;;;;;7.73;100.00;103330.28;2620009;36;20030;-56
2023/02/11 08:59:49;;;;;;;40.30;18.67;;;;;;;7.77;100.00;103336.41;2620321;36;20558;-56
2023/02/11 09:02:17;;;;;;;37.30;17.37;;;;;;;7.86;100.00;103344.09;2620163;36;20027;-54
2023/02/11 09:04:45;;;;;;;44.63;19.35;;;;;;;7.90;100.00;103337.69;2619410;36;20034;-52
2023/02/11 09:07:14;;;;;;;42.05;17.42;;;;;;;7.93;100.00;103347.44;2619154;36;20042;-60
2023/02/11 09:09:44;;;;;;;37.55;16.33;;;;;;;8.03;100.00;103347.03;2620330;36;20133;-53
2023/02/11 09:12:15;;;;;;;42.13;16.75;;;;;;;8.20;100.00;103350.84;2618648;36;20570;-54
2023/02/11 09:14:44;;;;;;;42.75;17.27;;;;;;;8.25;100.00;103348.88;2614341;36;20716;-56
2023/02/11 09:17:12;;;;;;;44.13;19.52;;;;;;;8.29;100.00;103350.53;2616516;36;20030;-53
2023/02/11 09:19:40;;;;;;;34.45;16.55;;;;;;;8.35;100.00;103355.63;2616367;36;20038;-56
2023/02/11 09:22:09;;;;;;;37.63;16.02;;;;;;;8.42;100.00;103358.94;2615779;36;20047;-56
2023/02/11 09:24:38;;;;;;;40.47;17.80;;;;;;;8.56;100.00;103355.75;2615999;36;20745;-55
2023/02/11 09:27:07;;;;;;;36.45;17.00;;;;;;;8.63;100.00;103354.59;2616245;31;20583;-56
2023/02/11 09:29:38;;;;;;;;;;;;;;;8.77;100.00;103359.38;2617336;31;20038;-57
2023/02/11 09:32:06;;;;;;;35.67;15.80;;;;;;;8.67;100.00;103366.94;2616059;36;19955;-56
2023/02/11 09:34:35;;;;;;;37.80;16.02;;;;;;;8.64;100.00;103369.72;2616338;31;20450;-56
2023/02/11 09:37:03;;;;;;;33.65;16.48;;;;;;;8.62;100.00;103374.31;2616506;36;20065;-56
2023/02/11 09:39:31;;;;;;;37.07;16.30;;;;;;;8.83;100.00;103366.31;2615770;36;20026;-55
2023/02/11 09:42:21;;;;;;;33.80;15.95;;;;;;;8.74;100.00;103367.56;2615556;31;20038;-53
2023/02/11 09:45:34;;;;;;;28.40;14.60;;;;;;;8.82;100.00;103386.03;2618168;36;20195;-54
2023/02/11 09:48:04;;;;;;;26.77;13.93;;;;;;;8.77;100.00;103384.44;2618521;36;20034;-55
2023/02/11 09:50:37;;;;;;;36.08;14.50;;;;;;;8.75;100.00;103385.44;2618088;36;20057;-55
2023/02/11 09:53:13;;;;;;;33.08;14.27;;;;;;;8.87;100.00;103392.09;2618459;36;20030;-57
2023/02/11 09:55:43;;;;;;;36.45;14.63;;;;;;;8.86;100.00;103382.28;2619747;36;20045;-53
2023/02/11 09:58:16;;;;;;;31.15;14.38;;;;;;;8.89;100.00;103385.75;2619109;36;20033;-56
2023/02/11 10:00:53;;;;;;;30.85;13.63;;;;;;;8.90;100.00;103392.84;2617803;31;20049;-56
2023/02/11 10:03:47;;;;;;;28.00;13.45;;;;;;;9.00;100.00;103396.03;2619162;36;20046;-54
2023/02/11 10:06:38;;;;;;;30.65;13.15;;;;;;;8.94;100.00;103407.03;2619307;36;20038;-54
2023/02/11 10:09:21;;;;;;;26.80;12.63;;;;;;;9.07;100.00;103413.66;2619828;36;20045;-54
2023/02/11 10:11:58;;;;;;;32.53;13.80;;;;;;;9.29;100.00;103415.47;2620343;36;20038;-55
2023/02/11 10:14:54;;;;;;;30.13;13.55;;;;;;;9.18;100.00;103415.03;2619151;36;20045;-59
2023/02/11 10:17:36;;;;;;;29.30;13.48;;;;;;;9.16;100.00;103411.50;2618303;36;20585;-56
2023/02/11 10:20:27;;;;;;;25.95;12.38;;;;;;;9.19;100.00;103416.78;2617787;36;20539;-56
2023/02/11 10:22:57;;;;;;;30.48;12.65;;;;;;;9.19;100.00;103414.09;2618920;36;20042;-58
2023/02/11 10:25:28;;;;;;;25.17;12.90;;;;;;;9.34;100.00;103421.50;2619001;31;20555;-53
2023/02/11 10:28:01;;;;;;;26.85;12.30;;;;;;;9.41;100.00;103422.13;2618692;36;20030;-56
2023/02/11 10:30:33;;;;;;;26.15;11.82;;;;;;;9.41;100.00;103431.06;2618969;36;20063;-52
2023/02/11 10:33:13;;;;;;;29.45;12.48;;;;;;;9.37;100.00;103432.13;2618858;36;20417;-52
2023/02/11 10:35:42;;;;;;;20.92;12.40;;;;;;;9.31;100.00;103435.06;2618090;36;20060;-50
2023/02/11 10:38:12;;;;;;;23.77;11.43;;;;;;;9.46;100.00;103437.09;2619631;31;20129;-56
2023/02/11 10:40:40;;;;;;;24.23;11.38;;;;;;;9.56;100.00;103434.03;2618542;36;20026;-56
2023/02/11 10:43:13;;;;;;;23.23;11.33;;;;;;;9.58;100.00;103433.00;2616428;36;20584;-54
2023/02/11 10:45:45;;;;;;;22.20;11.23;;;;;;;9.54;100.00;103428.72;2618314;36;20041;-57
2023/02/11 10:48:41;;;;;;;24.15;11.10;;;;;;;9.47;100.00;103427.22;2619560;36;20037;-53
2023/02/11 10:51:18;;;;;;;19.65;10.82;;;;;;;9.76;100.00;103436.72;2619197;36;20045;-55
2023/02/11 10:53:48;;;;;;;25.38;11.20;;;;;;;9.79;100.00;103439.28;2619401;36;20034;-53
2023/02/11 10:56:25;;;;;;;28.60;12.10;;;;;;;9.89;100.00;103438.88;2616496;36;20045;-56
2023/02/11 10:59:00;;;;;;;23.75;10.57;;;;;;;10.07;100.00;103437.16;2615211;36;20053;-54
2023/02/11 11:01:48;;;;;;;23.02;11.60;;;;;;;10.14;100.00;103447.59;2617275;36;20435;-56
2023/02/11 11:04:41;;;;;;;22.85;10.90;;;;;;;10.46;100.00;103449.78;2616351;31;20033;-53
2023/02/11 11:07:17;;;;;;;24.10;11.02;;;;;;;10.45;100.00;103448.91;2634297;36;20045;-56
2023/02/11 11:09:49;;;;;;;16.48;9.82;;;;;;;10.20;100.00;103459.88;2616319;36;20045;-56
2023/02/11 11:12:35;;;;;;;21.00;10.32;;;;;;;10.37;100.00;103453.78;2615843;36;20155;-55
2023/02/11 11:15:17;;;;;;;21.52;10.20;;;;;;;10.53;100.00;103448.53;2616530;36;20653;-55
2023/02/11 11:17:45;;;;;;;16.58;9.40;;;;;;;10.70;100.00;103453.13;2616627;36;20031;-57
2023/02/11 11:20:35;;;;;;;19.48;9.43;;;;;;;10.76;100.00;103455.53;2616602;36;20454;-56
2023/02/11 11:23:17;;;;;;;18.95;9.30;;;;;;;10.97;100.00;103460.84;2617484;31;20547;-56
2023/02/11 11:25:47;;;;;;;21.63;10.40;;;;;;;10.92;100.00;103468.25;2615960;36;20035;-58
2023/02/11 11:28:24;;;;;;;20.13;9.10;;;;;;;10.97;100.00;103468.94;2615808;36;20567;-56
2023/02/11 11:30:55;;;;;;;16.88;8.80;;;;;;;11.09;100.00;103464.75;2616592;36;20036;-55
2023/02/11 11:33:27;;;;;;;18.25;8.57;;;;;;;11.23;100.00;103456.84;2616715;36;20913;-56
2023/02/11 11:36:06;;;;;;;17.35;9.85;;;;;;;11.22;100.00;103461.38;2616487;36;20033;-55
2023/02/11 11:38:36;;;;;;;13.18;8.00;;;;;;;11.40;100.00;103445.22;2616867;31;20033;-53
2023/02/11 11:41:20;;;;;;;17.25;8.27;;;;;;;11.27;100.00;103447.66;2615238;36;20049;-53
2023/02/11 11:44:03;;;;;;;19.20;8.65;;;;;;;11.32;100.00;103452.81;2615849;36;20038;-57
2023/02/11 11:46:35;;;;;;;18.27;8.32;;;;;;;11.20;100.00;103448.91;2614089;36;20049;-55
2023/02/11 11:49:29;;;;;;;13.27;8.10;;;;;;;11.14;100.00;103446.53;2615259;36;20057;-55